createdAt,value
2022-10-05T00:00:56.935Z,16.53
2022-10-05T00:03:26.471Z,16.65
2022-10-05T00:05:54.938Z,16.41
2022-10-05T00:08:25.212Z,16.61
2022-10-05T00:10:54.554Z,16.70
2022-10-05T00:13:24.414Z,16.74
2022-10-05T00:15:59.137Z,16.23
2022-10-05T00:18:28.114Z,16.56
2022-10-05T00:20:56.309Z,16.45
2022-10-05T00:23:27.197Z,16.64
2022-10-05T00:25:58.310Z,16.61
2022-10-05T00:28:28.754Z,16.60
2022-10-05T00:30:57.287Z,16.70
2022-10-05T00:33:25.646Z,16.33
2022-10-05T00:35:55.596Z,16.62
2022-10-05T00:38:23.743Z,16.65
2022-10-05T00:41:06.134Z,16.73
2022-10-05T00:43:53.349Z,16.73
2022-10-05T00:46:27.174Z,16.32
2022-10-05T00:49:06.555Z,16.69
2022-10-05T00:51:38.150Z,16.67
2022-10-05T00:54:26.957Z,16.43
2022-10-05T00:57:18.816Z,16.61
2022-10-05T01:00:00.120Z,16.72
2022-10-05T01:02:37.108Z,16.75
2022-10-05T01:05:13.538Z,16.77
2022-10-05T01:07:52.227Z,16.80
2022-10-05T01:10:28.765Z,16.79
2022-10-05T01:13:07.899Z,16.90
2022-10-05T01:15:45.671Z,16.92
2022-10-05T01:18:19.182Z,16.78
2022-10-05T01:20:59.358Z,16.82
2022-10-05T01:23:55.810Z,16.78
2022-10-05T01:26:44.122Z,16.92
2022-10-05T01:29:19.791Z,16.96
2022-10-05T01:31:53.734Z,16.95
2022-10-05T01:34:30.107Z,16.88
2022-10-05T01:37:03.964Z,16.93
2022-10-05T01:39:47.495Z,16.89
2022-10-05T01:42:23.445Z,16.88
2022-10-05T01:45:04.481Z,17.04
2022-10-05T01:47:41.514Z,16.84
2022-10-05T01:50:18.943Z,16.92
2022-10-05T01:52:57.921Z,16.71
2022-10-05T01:55:36.599Z,16.78
2022-10-05T01:58:18.059Z,16.80
2022-10-05T02:00:57.002Z,16.60
2022-10-05T02:03:32.191Z,16.57
2022-10-05T02:06:05.525Z,16.81
2022-10-05T02:08:39.649Z,16.83
2022-10-05T02:11:10.776Z,16.70
2022-10-05T02:13:48.422Z,16.79
2022-10-05T02:16:26.017Z,16.74
2022-10-05T02:18:58.575Z,16.62
2022-10-05T02:21:28.619Z,16.44
2022-10-05T02:24:01.059Z,16.47
2022-10-05T02:26:29.996Z,16.55
2022-10-05T02:29:01.135Z,16.57
2022-10-05T02:31:39.430Z,16.49
2022-10-05T02:34:33.507Z,16.51
2022-10-05T02:37:18.030Z,16.53
2022-10-05T02:40:03.563Z,16.40
2022-10-05T02:42:40.364Z,16.44
2022-10-05T02:45:19.749Z,16.51
2022-10-05T02:47:57.669Z,16.72
2022-10-05T02:50:32.742Z,16.76
2022-10-05T02:53:16.050Z,16.66
2022-10-05T02:55:48.626Z,16.78
2022-10-05T02:58:25.135Z,16.62
2022-10-05T03:01:01.327Z,16.66
2022-10-05T03:03:37.644Z,16.66
2022-10-05T03:06:14.149Z,16.66
2022-10-05T03:08:50.650Z,16.73
2022-10-05T03:11:28.594Z,16.74
2022-10-05T03:14:05.190Z,16.76
2022-10-05T03:16:45.527Z,16.73
2022-10-05T03:19:28.559Z,16.51
2022-10-05T03:22:02.534Z,16.58
2022-10-05T03:24:48.387Z,16.78
2022-10-05T03:27:29.687Z,16.72
2022-10-05T03:30:06.543Z,16.62
2022-10-05T03:32:48.337Z,16.58
2022-10-05T03:35:24.547Z,16.57
2022-10-05T03:38:03.017Z,16.35
2022-10-05T03:40:35.824Z,16.37
2022-10-05T03:43:22.315Z,16.26
2022-10-05T03:45:59.243Z,16.19
2022-10-05T03:48:33.535Z,16.29
2022-10-05T03:51:09.135Z,16.19
2022-10-05T03:53:43.363Z,16.10
2022-10-05T03:56:17.242Z,16.10
2022-10-05T03:58:55.649Z,16.05
2022-10-05T04:01:34.220Z,15.88
2022-10-05T04:04:05.476Z,15.83
2022-10-05T04:06:43.193Z,15.74
2022-10-05T04:09:16.074Z,15.86
2022-10-05T04:11:55.911Z,16.01
2022-10-05T04:14:28.687Z,16.09
2022-10-05T04:17:00.939Z,16.01
2022-10-05T04:19:37.847Z,16.05
2022-10-05T04:22:13.083Z,15.97
2022-10-05T04:24:48.367Z,15.95
2022-10-05T04:27:20.955Z,16.07
2022-10-05T04:29:56.431Z,15.76
2022-10-05T04:32:31.373Z,15.87
2022-10-05T04:35:17.438Z,15.74
2022-10-05T04:37:55.014Z,15.64
2022-10-05T04:40:38.013Z,15.94
2022-10-05T04:43:16.350Z,15.75
2022-10-05T04:46:11.087Z,15.58
2022-10-05T04:49:25.681Z,15.56
2022-10-05T04:52:05.324Z,15.72
2022-10-05T04:54:48.213Z,15.65
2022-10-05T04:57:24.285Z,15.73
2022-10-05T05:00:13.874Z,15.67
2022-10-05T05:03:04.511Z,15.62
2022-10-05T05:06:05.083Z,15.59
2022-10-05T05:08:57.953Z,15.64
2022-10-05T05:11:34.932Z,15.74
2022-10-05T05:14:26.659Z,15.86
2022-10-05T05:17:07.601Z,15.74
2022-10-05T05:19:50.135Z,15.79
2022-10-05T05:22:26.840Z,15.86
2022-10-05T05:25:13.208Z,15.80
2022-10-05T05:27:46.786Z,15.79
2022-10-05T05:30:21.844Z,15.68
2022-10-05T05:33:02.193Z,15.62
2022-10-05T05:35:46.635Z,15.69
2022-10-05T05:38:24.413Z,15.58
2022-10-05T05:41:06.139Z,15.58
2022-10-05T05:43:49.429Z,15.65
2022-10-05T05:46:38.892Z,15.67
2022-10-05T05:49:19.051Z,15.82
2022-10-05T05:51:53.207Z,15.57
2022-10-05T05:54:32.928Z,15.62
2022-10-05T05:57:11.028Z,15.70
2022-10-05T06:00:03.972Z,15.64
2022-10-05T06:02:46.728Z,15.70
2022-10-05T06:05:28.489Z,15.70
2022-10-05T06:08:02.287Z,15.70
2022-10-05T06:10:41.443Z,15.61
2022-10-05T06:13:18.274Z,15.54
2022-10-05T06:15:54.185Z,15.64
2022-10-05T06:18:24.119Z,15.64
2022-10-05T06:21:01.008Z,15.38
2022-10-05T06:23:35.642Z,15.46
2022-10-05T06:26:14.781Z,15.51
2022-10-05T06:28:48.629Z,15.61
2022-10-05T06:31:35.891Z,15.80
2022-10-05T06:34:19.685Z,15.68
2022-10-05T06:36:53.055Z,15.82
2022-10-05T06:40:01.231Z,15.97
2022-10-05T06:42:48.032Z,15.75
2022-10-05T06:46:01.059Z,15.75
2022-10-05T06:49:04.524Z,15.82
2022-10-05T06:51:53.811Z,15.94
2022-10-05T06:54:42.657Z,16.02
2022-10-05T06:57:20.883Z,15.95
2022-10-05T06:59:58.902Z,16.06
2022-10-05T07:02:34.148Z,16.00
2022-10-05T07:05:27.864Z,15.96
2022-10-05T07:08:00.671Z,16.07
2022-10-05T07:10:33.954Z,16.20
2022-10-05T07:13:29.713Z,16.13
2022-10-05T07:16:02.637Z,16.22
2022-10-05T07:19:06.257Z,16.06
2022-10-05T07:21:44.662Z,16.21
2022-10-05T07:24:27.299Z,16.07
2022-10-05T07:27:03.171Z,16.38
2022-10-05T07:29:36.055Z,16.37
2022-10-05T07:32:16.691Z,16.36
2022-10-05T07:34:54.982Z,16.21
2022-10-05T07:37:49.761Z,16.55
2022-10-05T07:40:24.667Z,16.47
2022-10-05T07:43:03.929Z,16.53
2022-10-05T07:45:38.167Z,16.47
2022-10-05T07:48:16.119Z,16.46
2022-10-05T07:50:54.077Z,16.48
2022-10-05T07:53:28.723Z,16.50
2022-10-05T07:56:02.147Z,16.52
2022-10-05T07:58:36.292Z,16.54
2022-10-05T08:01:13.080Z,16.33
2022-10-05T08:03:52.200Z,16.55
2022-10-05T08:06:33.431Z,16.61
2022-10-05T08:09:09.875Z,16.64
2022-10-05T08:11:46.605Z,16.77
2022-10-05T08:14:23.788Z,16.59
2022-10-05T08:16:55.208Z,16.85
2022-10-05T08:19:27.409Z,16.80
2022-10-05T08:21:59.637Z,16.80
2022-10-05T08:24:42.446Z,16.81
2022-10-05T08:27:16.989Z,16.74
2022-10-05T08:29:53.720Z,16.86
2022-10-05T08:32:25.763Z,16.80
2022-10-05T08:35:00.256Z,16.94
2022-10-05T08:37:32.627Z,17.02
2022-10-05T08:40:33.258Z,16.80
2022-10-05T08:43:15.676Z,16.89
2022-10-05T08:46:17.877Z,16.74
2022-10-05T08:49:09.883Z,16.98
2022-10-05T08:52:19.939Z,16.94
2022-10-05T08:55:17.601Z,16.82
2022-10-05T08:57:59.894Z,16.65
2022-10-05T09:00:38.247Z,16.69
2022-10-05T09:03:22.081Z,16.83
2022-10-05T09:06:27.672Z,16.86
2022-10-05T09:09:32.528Z,17.06
2022-10-05T09:12:28.730Z,16.83
2022-10-05T09:15:25.264Z,16.99
2022-10-05T09:18:28.578Z,17.11
2022-10-05T09:21:03.671Z,17.11
2022-10-05T09:23:40.646Z,17.04
2022-10-05T09:26:29.539Z,17.00
2022-10-05T09:29:15.439Z,16.92
2022-10-05T09:31:59.928Z,16.95
2022-10-05T09:34:53.637Z,16.91
2022-10-05T09:37:44.432Z,16.77
2022-10-05T09:40:47.636Z,16.89
2022-10-05T09:43:50.075Z,16.97
2022-10-05T09:46:47.901Z,16.97
2022-10-05T09:49:46.230Z,16.95
2022-10-05T09:52:42.225Z,16.91
2022-10-05T09:55:40.635Z,16.99
2022-10-05T09:58:53.420Z,17.04
2022-10-05T10:01:39.933Z,17.06
2022-10-05T10:04:20.392Z,16.91
2022-10-05T10:07:42.310Z,17.04
2022-10-05T10:10:45.288Z,16.77
2022-10-05T10:13:38.167Z,16.95
2022-10-05T10:16:20.022Z,17.07
2022-10-05T10:19:30.806Z,17.17
2022-10-05T10:22:29.293Z,17.12
2022-10-05T10:25:21.213Z,17.23
2022-10-05T10:28:14.572Z,17.00
2022-10-05T10:31:07.217Z,16.93
2022-10-05T10:34:01.789Z,16.56
2022-10-05T10:36:46.691Z,17.02
2022-10-05T10:39:24.940Z,17.17
2022-10-05T10:42:25.291Z,16.73
2022-10-05T10:45:04.826Z,16.93
2022-10-05T10:47:41.094Z,17.05
2022-10-05T10:50:46.271Z,17.05
2022-10-05T10:53:45.017Z,16.87
2022-10-05T10:56:30.505Z,16.84
2022-10-05T10:59:26.637Z,16.78
2022-10-05T11:02:19.651Z,16.68
2022-10-05T11:05:04.534Z,16.82
2022-10-05T11:07:48.742Z,16.88
2022-10-05T11:10:37.507Z,17.11
2022-10-05T11:13:55.712Z,17.06
2022-10-05T11:17:02.476Z,17.12
2022-10-05T11:20:07.031Z,17.10
2022-10-05T11:23:00.298Z,17.16
2022-10-05T11:25:58.766Z,17.22
2022-10-05T11:28:46.647Z,16.99
2022-10-05T11:31:45.893Z,16.89
2022-10-05T11:34:44.596Z,16.66
2022-10-05T11:37:36.328Z,16.74
2022-10-05T11:40:26.788Z,17.25
2022-10-05T11:43:15.247Z,17.18
2022-10-05T11:46:05.526Z,17.12
2022-10-05T11:48:51.875Z,17.10
2022-10-05T11:51:45.452Z,17.13
2022-10-05T11:55:09.211Z,17.09
2022-10-05T11:57:38.809Z,17.23
2022-10-05T12:00:15.063Z,17.16
2022-10-05T12:03:13.071Z,16.98
2022-10-05T12:05:55.163Z,17.12
2022-10-05T12:08:34.095Z,16.94
2022-10-05T12:11:10.118Z,16.68
2022-10-05T12:13:46.261Z,16.93
2022-10-05T12:16:19.415Z,17.20
2022-10-05T12:18:54.540Z,16.88
2022-10-05T12:21:32.783Z,17.26
2022-10-05T12:24:07.979Z,17.19
2022-10-05T12:26:39.737Z,17.20
2022-10-05T12:29:14.241Z,17.36
2022-10-05T12:31:55.558Z,16.55
2022-10-05T12:34:35.486Z,16.96
2022-10-05T12:37:10.851Z,17.26
2022-10-05T12:39:48.208Z,17.22
2022-10-05T12:42:26.955Z,17.14
2022-10-05T12:45:10.534Z,17.02
2022-10-05T12:47:53.498Z,16.98
2022-10-05T12:50:28.280Z,17.29
2022-10-05T12:53:15.303Z,17.54
2022-10-05T12:55:53.295Z,17.48
2022-10-05T12:58:30.662Z,17.38
2022-10-05T13:01:07.800Z,17.40
2022-10-05T13:03:39.001Z,17.08
2022-10-05T13:06:18.474Z,17.16
2022-10-05T13:08:53.482Z,16.64
2022-10-05T13:11:34.855Z,17.27
2022-10-05T13:14:12.224Z,16.63
2022-10-05T13:16:51.263Z,16.60
2022-10-05T13:19:34.318Z,16.78
2022-10-05T13:22:22.631Z,16.60
2022-10-05T13:24:59.370Z,16.87
2022-10-05T13:27:32.795Z,17.20
2022-10-05T13:30:04.685Z,17.36
2022-10-05T13:32:36.894Z,17.23
2022-10-05T13:35:24.574Z,16.83
2022-10-05T13:38:06.177Z,17.17
2022-10-05T13:40:40.333Z,17.26
2022-10-05T13:43:20.170Z,17.04
2022-10-05T13:45:55.823Z,16.91
2022-10-05T13:48:47.426Z,16.88
2022-10-05T13:51:22.897Z,17.03
2022-10-05T13:53:59.266Z,16.97
2022-10-05T13:56:31.175Z,17.18
2022-10-05T13:59:11.967Z,16.89
2022-10-05T14:01:44.273Z,16.91
2022-10-05T14:04:18.071Z,16.74
2022-10-05T14:06:46.416Z,17.01
2022-10-05T14:09:29.083Z,16.98
2022-10-05T14:12:13.890Z,16.62
2022-10-05T14:14:49.633Z,17.11
2022-10-05T14:17:32.818Z,17.27
2022-10-05T14:20:03.453Z,17.45
2022-10-05T14:22:44.188Z,17.06
2022-10-05T14:25:17.170Z,17.35
2022-10-05T14:27:51.887Z,17.36
2022-10-05T14:30:23.765Z,17.33
2022-10-05T14:32:56.336Z,17.44
2022-10-05T14:35:26.567Z,17.35
2022-10-05T14:38:00.450Z,17.44
2022-10-05T14:40:31.912Z,17.04
2022-10-05T14:43:02.875Z,17.37
2022-10-05T14:45:33.802Z,17.08
2022-10-05T14:48:11.562Z,17.28
2022-10-05T14:50:57.667Z,17.03
2022-10-05T14:53:26.783Z,17.30
2022-10-05T14:56:17.191Z,17.44
2022-10-05T14:59:14.215Z,17.57
2022-10-05T15:01:50.725Z,17.63
2022-10-05T15:04:30.455Z,17.45
2022-10-05T15:07:13.138Z,17.36
2022-10-05T15:09:52.091Z,17.55
2022-10-05T15:12:25.894Z,17.51
2022-10-05T15:14:58.933Z,17.45
2022-10-05T15:17:35.492Z,17.49
2022-10-05T15:20:09.646Z,17.13
2022-10-05T15:22:49.201Z,17.06
2022-10-05T15:25:23.097Z,17.27
2022-10-05T15:28:07.389Z,17.20
2022-10-05T15:30:39.355Z,17.07
2022-10-05T15:33:16.045Z,17.16
2022-10-05T15:35:49.391Z,17.14
2022-10-05T15:38:23.172Z,16.92
2022-10-05T15:41:01.174Z,17.13
2022-10-05T15:43:41.399Z,17.04
2022-10-05T15:46:14.000Z,16.55
2022-10-05T15:48:50.207Z,16.90
2022-10-05T15:51:31.747Z,16.96
2022-10-05T15:54:24.046Z,16.89
2022-10-05T15:56:57.387Z,17.29
2022-10-05T15:59:34.638Z,17.30
2022-10-05T16:02:08.232Z,17.66
2022-10-05T16:04:48.469Z,17.03
2022-10-05T16:07:39.041Z,16.95
2022-10-05T16:10:16.640Z,17.36
2022-10-05T16:12:57.540Z,17.34
2022-10-05T16:15:33.380Z,17.02
2022-10-05T16:18:38.028Z,17.26
2022-10-05T16:21:18.896Z,17.29
2022-10-05T16:24:05.049Z,17.33
2022-10-05T16:26:47.694Z,17.33
2022-10-05T16:29:25.877Z,16.80
2022-10-05T16:32:01.309Z,17.00
2022-10-05T16:34:45.131Z,17.44
2022-10-05T16:37:28.154Z,17.33
2022-10-05T16:39:59.783Z,17.42
2022-10-05T16:42:41.228Z,17.21
2022-10-05T16:45:45.074Z,17.27
2022-10-05T16:48:20.778Z,16.97
2022-10-05T16:50:59.559Z,17.05
2022-10-05T16:53:33.329Z,17.02
2022-10-05T16:56:05.131Z,17.46
2022-10-05T16:58:45.806Z,17.32
2022-10-05T17:01:29.042Z,17.13
2022-10-05T17:04:10.506Z,17.05
2022-10-05T17:06:50.385Z,16.90
2022-10-05T17:09:37.867Z,17.23
2022-10-05T17:12:40.390Z,17.21
2022-10-05T17:15:29.239Z,17.17
2022-10-05T17:18:11.178Z,17.51
2022-10-05T17:20:49.201Z,17.19
2022-10-05T17:23:37.362Z,17.22
2022-10-05T17:26:38.719Z,17.42
2022-10-05T17:29:15.155Z,17.21
2022-10-05T17:32:01.703Z,17.03
2022-10-05T17:34:34.797Z,16.75
2022-10-05T17:37:18.459Z,16.46
2022-10-05T17:39:49.634Z,17.29
2022-10-05T17:42:58.371Z,17.13
2022-10-05T17:45:53.784Z,17.21
2022-10-05T17:49:07.729Z,17.37
2022-10-05T17:52:16.121Z,17.39
2022-10-05T17:55:30.215Z,17.32
2022-10-05T17:58:02.102Z,17.31
2022-10-05T18:01:04.741Z,17.45
2022-10-05T18:03:39.214Z,17.21
2022-10-05T18:06:31.886Z,16.95
2022-10-05T18:09:37.642Z,17.35
2022-10-05T18:12:39.885Z,16.88
2022-10-05T18:15:45.153Z,17.49
2022-10-05T18:18:34.719Z,17.54
2022-10-05T18:21:24.149Z,17.22
2022-10-05T18:24:17.229Z,16.84
2022-10-05T18:26:57.296Z,17.15
2022-10-05T18:29:56.316Z,17.20
2022-10-05T18:32:32.099Z,16.92
2022-10-05T18:35:06.399Z,17.36
2022-10-05T18:37:48.911Z,17.40
2022-10-05T18:40:31.145Z,17.14
2022-10-05T18:43:09.513Z,17.29
2022-10-05T18:45:49.962Z,16.98
2022-10-05T18:48:31.785Z,17.15
2022-10-05T18:51:05.887Z,17.32
2022-10-05T18:53:43.495Z,17.24
2022-10-05T18:56:24.451Z,17.28
2022-10-05T18:59:06.255Z,17.38
2022-10-05T19:02:06.251Z,17.60
2022-10-05T19:04:45.973Z,17.32
2022-10-05T19:07:23.692Z,17.54
2022-10-05T19:10:04.566Z,17.52
2022-10-05T19:12:44.726Z,17.51
2022-10-05T19:15:20.334Z,17.26
2022-10-05T19:18:04.451Z,17.43
2022-10-05T19:20:37.870Z,17.50
2022-10-05T19:23:30.057Z,17.40
2022-10-05T19:26:08.368Z,17.55
2022-10-05T19:28:42.283Z,17.53
2022-10-05T19:31:25.229Z,17.51
2022-10-05T19:34:04.692Z,17.61
2022-10-05T19:36:51.399Z,17.78
2022-10-05T19:39:29.080Z,17.66
2022-10-05T19:42:11.575Z,17.73
2022-10-05T19:44:52.325Z,17.67
2022-10-05T19:47:35.370Z,17.80
2022-10-05T19:50:22.086Z,17.78
2022-10-05T19:52:59.514Z,17.70
2022-10-05T19:55:34.758Z,17.82
2022-10-05T19:58:03.036Z,17.68
2022-10-05T20:00:32.882Z,17.67
2022-10-05T20:03:13.013Z,17.70
2022-10-05T20:05:41.531Z,17.49
2022-10-05T20:08:17.067Z,17.68
2022-10-05T20:10:46.047Z,17.60
2022-10-05T20:13:21.393Z,17.53
2022-10-05T20:16:25.861Z,17.48
2022-10-05T20:19:12.007Z,17.52
2022-10-05T20:21:43.244Z,17.46
2022-10-05T20:24:14.154Z,17.54
2022-10-05T20:27:01.998Z,17.31
2022-10-05T20:29:31.594Z,17.48
2022-10-05T20:31:59.801Z,17.53
2022-10-05T20:34:27.723Z,17.40
2022-10-05T20:36:55.697Z,17.40
2022-10-05T20:39:25.679Z,17.36
2022-10-05T20:41:53.869Z,17.44
2022-10-05T20:44:21.769Z,17.29
2022-10-05T20:46:49.773Z,17.28
2022-10-05T20:49:17.802Z,17.16
2022-10-05T20:51:45.969Z,17.26
2022-10-05T20:54:19.208Z,17.32
2022-10-05T20:56:48.568Z,17.15
2022-10-05T20:59:16.776Z,17.17
2022-10-05T21:01:48.011Z,17.16
2022-10-05T21:04:17.127Z,17.20
2022-10-05T21:06:45.563Z,17.27
2022-10-05T21:09:15.022Z,17.12
2022-10-05T21:11:43.295Z,17.00
2022-10-05T21:14:13.079Z,16.93
2022-10-05T21:16:42.900Z,16.99
2022-10-05T21:19:13.067Z,17.04
2022-10-05T21:21:41.986Z,17.03
2022-10-05T21:24:11.211Z,16.85
2022-10-05T21:26:39.185Z,16.95
2022-10-05T21:29:12.091Z,16.96
2022-10-05T21:31:42.103Z,16.87
2022-10-05T21:34:12.721Z,16.90
2022-10-05T21:36:40.703Z,16.77
2022-10-05T21:39:08.679Z,16.66
2022-10-05T21:41:36.655Z,16.79
2022-10-05T21:44:11.063Z,16.44
2022-10-05T21:46:41.390Z,16.73
2022-10-05T21:49:09.792Z,16.67
2022-10-05T21:51:41.107Z,16.79
2022-10-05T21:54:14.904Z,16.61
2022-10-05T21:56:47.960Z,16.63
2022-10-05T21:59:19.952Z,16.54
2022-10-05T22:01:53.835Z,16.48
2022-10-05T22:04:22.010Z,16.37
2022-10-05T22:06:52.981Z,16.42
2022-10-05T22:09:22.916Z,16.52
2022-10-05T22:11:54.900Z,16.33
2022-10-05T22:14:23.061Z,16.33
2022-10-05T22:16:55.132Z,16.22
2022-10-05T22:19:23.117Z,16.43
2022-10-05T22:21:51.013Z,16.15
2022-10-05T22:24:18.981Z,16.21
2022-10-05T22:26:51.428Z,16.28
2022-10-05T22:29:22.540Z,16.19
2022-10-05T22:31:50.573Z,16.09
2022-10-05T22:34:20.014Z,16.10
2022-10-05T22:36:48.622Z,16.13
2022-10-05T22:39:16.982Z,16.05
2022-10-05T22:41:45.155Z,16.06
2022-10-05T22:44:13.053Z,16.13
2022-10-05T22:46:41.093Z,15.90
2022-10-05T22:49:09.159Z,15.82
2022-10-05T22:51:38.531Z,15.83
2022-10-05T22:54:06.910Z,15.84
2022-10-05T22:56:35.311Z,15.70
2022-10-05T22:59:03.262Z,15.55
2022-10-05T23:01:31.284Z,15.67
2022-10-05T23:03:59.508Z,15.52
2022-10-05T23:06:27.607Z,15.47
2022-10-05T23:08:56.883Z,15.52
2022-10-05T23:11:27.102Z,15.68
2022-10-05T23:13:56.846Z,15.68
2022-10-05T23:16:27.195Z,15.51
2022-10-05T23:18:56.212Z,15.50
2022-10-05T23:21:26.111Z,15.65
2022-10-05T23:23:54.126Z,15.88
2022-10-05T23:26:25.548Z,15.61
2022-10-05T23:28:53.879Z,15.32
2022-10-05T23:31:24.509Z,15.48
2022-10-05T23:33:52.903Z,15.25
2022-10-05T23:36:23.094Z,15.28
2022-10-05T23:38:51.362Z,15.22
2022-10-05T23:41:20.769Z,15.47
2022-10-05T23:43:50.447Z,15.36
2022-10-05T23:46:19.639Z,14.99
2022-10-05T23:48:47.578Z,15.09
2022-10-05T23:51:16.224Z,15.15
2022-10-05T23:53:44.628Z,15.25
2022-10-05T23:56:12.955Z,15.31
2022-10-05T23:58:41.173Z,15.15
